Terminal Aerodrome Forecast
Issued by NWS Cleveland, OH

Home | Current Version | Previous Version | Graphics & Text | Print | Product List | Glossary On
Versions: 1 2 3 4 5 6 7 8 9 10 11 12 13 14 15
000
FTUS41 KCLE 241700
TAFERI
TAF
KERI 241737Z 2418/2518 16015G25KT P6SM SCT025 OVC035
      TEMPO 2418/2422 6SM BR BKN025 OVC030
     FM242200 17010G20KT P6SM BKN045
     FM250100 19020G30KT 4SM -SHRA OVC018
     FM250400 21025G45KT P6SM OVC025
     FM251000 24025G40KT 3SM -SHSN OVC015
     FM251500 25012G25KT 5SM -SHSN BR OVC015=

USA.gov is the U.S. government's official web portal to all federal, state and local government web resources and services.